createdAt,value
2023-03-16T00:02:20.229Z,67.85
2023-03-16T00:04:47.457Z,67.30
2023-03-16T00:07:15.788Z,67.32
2023-03-16T00:09:42.710Z,67.38
2023-03-16T00:12:17.703Z,68.52
2023-03-16T00:14:45.893Z,68.65
2023-03-16T00:17:18.904Z,68.26
2023-03-16T00:19:57.175Z,68.42
2023-03-16T00:22:26.391Z,67.34
2023-03-16T00:24:53.722Z,68.26
2023-03-16T00:27:22.779Z,68.48
2023-03-16T00:29:55.729Z,68.60
2023-03-16T00:32:31.987Z,68.38
2023-03-16T00:34:58.893Z,68.88
2023-03-16T00:37:27.780Z,69.64
2023-03-16T00:39:58.053Z,69.40
2023-03-16T00:42:31.394Z,68.83
2023-03-16T00:44:59.256Z,69.30
2023-03-16T00:47:30.752Z,69.41
2023-03-16T00:49:58.129Z,69.11
2023-03-16T00:52:27.256Z,69.63
2023-03-16T00:54:54.817Z,70.11
2023-03-16T00:57:24.675Z,70.48
2023-03-16T00:59:51.295Z,71.33
2023-03-16T01:02:23.218Z,71.14
2023-03-16T01:04:49.731Z,71.67
2023-03-16T01:07:16.215Z,71.44
2023-03-16T01:09:43.506Z,71.40
2023-03-16T01:12:18.398Z,71.91
2023-03-16T01:14:46.050Z,71.80
2023-03-16T01:17:14.146Z,71.65
2023-03-16T01:19:41.928Z,71.25
2023-03-16T01:22:10.346Z,71.38
2023-03-16T01:24:37.417Z,70.95
2023-03-16T01:27:04.887Z,70.47
2023-03-16T01:29:32.162Z,71.65
2023-03-16T01:31:59.211Z,70.31
2023-03-16T01:34:25.662Z,71.43
2023-03-16T01:36:52.595Z,71.22
2023-03-16T01:39:19.133Z,72.06
2023-03-16T01:41:46.908Z,71.57
2023-03-16T01:44:24.275Z,71.77
2023-03-16T01:46:51.074Z,71.42
2023-03-16T01:49:34.178Z,72.13
2023-03-16T01:52:13.536Z,72.22
2023-03-16T01:54:49.010Z,72.13
2023-03-16T01:57:21.908Z,71.21
2023-03-16T02:00:15.060Z,71.39
2023-03-16T02:02:44.817Z,71.59
2023-03-16T02:05:19.581Z,70.98
2023-03-16T02:07:52.134Z,71.71
2023-03-16T02:10:20.389Z,70.78
2023-03-16T02:12:47.412Z,71.27
2023-03-16T02:15:14.816Z,71.51
2023-03-16T02:17:43.875Z,71.24
2023-03-16T02:20:28.924Z,71.00
2023-03-16T02:22:56.016Z,70.70
2023-03-16T02:25:29.028Z,71.60
2023-03-16T02:28:08.686Z,71.22
2023-03-16T02:30:35.605Z,71.69
2023-03-16T02:33:04.879Z,71.32
2023-03-16T02:35:32.263Z,71.45
2023-03-16T02:37:58.814Z,71.44
2023-03-16T02:40:31.887Z,71.82
2023-03-16T02:43:18.763Z,71.43
2023-03-16T02:45:58.427Z,71.24
2023-03-16T02:48:32.237Z,70.84
2023-03-16T02:50:58.907Z,71.09
2023-03-16T02:53:25.456Z,71.00
2023-03-16T02:55:52.053Z,71.01
2023-03-16T02:58:19.228Z,71.57
2023-03-16T03:00:45.796Z,71.91
2023-03-16T03:03:12.347Z,71.67
2023-03-16T03:05:38.909Z,72.01
2023-03-16T03:08:06.472Z,71.79
2023-03-16T03:10:33.379Z,72.74
2023-03-16T03:13:00.072Z,73.66
2023-03-16T03:15:26.560Z,73.58
2023-03-16T03:17:53.819Z,74.15
2023-03-16T03:20:21.532Z,73.66
2023-03-16T03:22:49.827Z,73.87
2023-03-16T03:25:18.269Z,74.10
2023-03-16T03:27:45.898Z,74.40
2023-03-16T03:30:15.719Z,74.58
2023-03-16T03:32:44.120Z,74.69
2023-03-16T03:35:12.696Z,75.06
2023-03-16T03:37:41.043Z,75.10
2023-03-16T03:40:10.386Z,75.21
2023-03-16T03:42:37.710Z,75.31
2023-03-16T03:45:04.939Z,75.54
2023-03-16T03:47:31.782Z,76.12
2023-03-16T03:49:58.185Z,76.20
2023-03-16T03:52:24.728Z,76.58
2023-03-16T03:54:51.509Z,76.76
2023-03-16T03:57:19.101Z,77.36
2023-03-16T03:59:46.290Z,77.20
2023-03-16T04:02:14.062Z,77.19
2023-03-16T04:04:41.898Z,77.35
2023-03-16T04:07:08.788Z,77.12
2023-03-16T04:09:35.377Z,76.88
2023-03-16T04:12:03.285Z,76.97
2023-03-16T04:14:30.025Z,77.21
2023-03-16T04:16:57.020Z,77.37
2023-03-16T04:19:24.978Z,77.15
2023-03-16T04:21:52.178Z,76.99
2023-03-16T04:24:19.074Z,77.27
2023-03-16T04:26:46.042Z,77.17
2023-03-16T04:29:18.190Z,76.93
2023-03-16T04:31:45.444Z,77.29
2023-03-16T04:34:12.733Z,76.96
2023-03-16T04:36:39.563Z,76.83
2023-03-16T04:39:06.676Z,77.47
2023-03-16T04:41:36.079Z,76.76
2023-03-16T04:44:02.817Z,76.88
2023-03-16T04:46:29.582Z,76.74
2023-03-16T04:48:58.292Z,76.75
2023-03-16T04:51:25.742Z,76.63
2023-03-16T04:53:52.403Z,77.15
2023-03-16T04:56:19.057Z,76.92
2023-03-16T04:58:47.833Z,77.25
2023-03-16T05:01:15.169Z,77.60
2023-03-16T05:03:41.801Z,77.54
2023-03-16T05:06:08.625Z,77.19
2023-03-16T05:08:35.104Z,77.46
2023-03-16T05:11:01.721Z,77.49
2023-03-16T05:13:28.229Z,77.72
2023-03-16T05:15:54.794Z,77.79
2023-03-16T05:18:22.331Z,78.36
2023-03-16T05:20:56.450Z,78.49
2023-03-16T05:23:23.604Z,77.94
2023-03-16T05:25:50.499Z,77.58
2023-03-16T05:28:17.693Z,77.60
2023-03-16T05:30:47.555Z,77.59
2023-03-16T05:33:14.111Z,77.40
2023-03-16T05:35:40.759Z,77.30
2023-03-16T05:38:08.634Z,76.99
2023-03-16T05:40:35.243Z,77.10
2023-03-16T05:43:01.698Z,76.87
2023-03-16T05:45:28.876Z,76.77
2023-03-16T05:47:55.401Z,76.37
2023-03-16T05:50:22.342Z,76.79
2023-03-16T05:52:48.851Z,76.38
2023-03-16T05:55:17.314Z,76.25
2023-03-16T05:57:44.440Z,76.13
2023-03-16T06:00:18.119Z,75.97
2023-03-16T06:02:50.038Z,75.85
2023-03-16T06:05:18.915Z,75.71
2023-03-16T06:07:45.433Z,75.81
2023-03-16T06:10:12.489Z,75.62
2023-03-16T06:12:39.240Z,76.39
2023-03-16T06:15:10.258Z,76.13
2023-03-16T06:17:37.874Z,76.04
2023-03-16T06:20:10.496Z,75.94
2023-03-16T06:22:38.553Z,76.17
2023-03-16T06:25:05.552Z,75.78
2023-03-16T06:27:32.103Z,76.17
2023-03-16T06:29:58.763Z,76.35
2023-03-16T06:32:25.299Z,76.09
2023-03-16T06:34:51.756Z,76.51
2023-03-16T06:37:18.524Z,76.92
2023-03-16T06:39:45.036Z,77.25
2023-03-16T06:42:11.508Z,77.27
2023-03-16T06:44:38.022Z,76.88
2023-03-16T06:47:04.814Z,77.49
2023-03-16T06:49:31.365Z,77.63
2023-03-16T06:51:58.733Z,77.58
2023-03-16T06:54:25.198Z,77.90
2023-03-16T06:56:52.315Z,77.61
2023-03-16T06:59:18.774Z,77.58
2023-03-16T07:01:45.273Z,78.08
2023-03-16T07:04:12.677Z,77.73
2023-03-16T07:06:39.271Z,77.58
2023-03-16T07:09:06.036Z,77.36
2023-03-16T07:11:32.691Z,76.97
2023-03-16T07:13:59.512Z,76.79
2023-03-16T07:16:26.242Z,76.82
2023-03-16T07:18:52.908Z,76.56
2023-03-16T07:21:19.864Z,75.65
2023-03-16T07:23:46.532Z,75.33
2023-03-16T07:26:13.980Z,75.63
2023-03-16T07:28:40.678Z,75.39
2023-03-16T07:31:07.553Z,74.86
2023-03-16T07:33:35.324Z,74.78
2023-03-16T07:36:05.993Z,74.76
2023-03-16T07:38:32.742Z,74.65
2023-03-16T07:41:02.157Z,74.54
2023-03-16T07:43:29.343Z,74.22
2023-03-16T07:45:56.037Z,74.36
2023-03-16T07:48:22.580Z,74.23
2023-03-16T07:50:49.740Z,74.44
2023-03-16T07:53:16.328Z,73.83
2023-03-16T07:55:43.452Z,73.76
2023-03-16T07:58:16.662Z,73.49
2023-03-16T08:00:43.118Z,74.00
2023-03-16T08:03:09.743Z,73.85
2023-03-16T08:05:36.260Z,74.22
2023-03-16T08:08:02.725Z,73.63
2023-03-16T08:10:30.000Z,73.57
2023-03-16T08:12:56.797Z,73.86
2023-03-16T08:15:23.742Z,73.60
2023-03-16T08:17:50.409Z,74.58
2023-03-16T08:20:16.947Z,74.04
2023-03-16T08:22:46.323Z,74.15
2023-03-16T08:25:14.439Z,74.60
2023-03-16T08:27:42.941Z,74.28
2023-03-16T08:30:12.085Z,74.41
2023-03-16T08:32:39.835Z,75.14
2023-03-16T08:35:09.589Z,75.14
2023-03-16T08:37:36.164Z,75.01
2023-03-16T08:40:05.013Z,74.85
2023-03-16T08:42:32.514Z,74.77
2023-03-16T08:45:00.881Z,74.27
2023-03-16T08:47:27.394Z,74.86
2023-03-16T08:49:53.810Z,74.06
2023-03-16T08:52:20.387Z,73.93
2023-03-16T08:55:01.451Z,73.41
2023-03-16T08:57:28.208Z,73.67
2023-03-16T08:59:54.885Z,73.13
2023-03-16T09:02:22.118Z,73.65
2023-03-16T09:04:49.754Z,73.31
2023-03-16T09:07:16.296Z,72.71
2023-03-16T09:09:43.809Z,72.56
2023-03-16T09:12:10.851Z,72.36
2023-03-16T09:14:38.430Z,73.33
2023-03-16T09:17:07.689Z,73.14
2023-03-16T09:19:50.188Z,72.98
2023-03-16T09:22:17.408Z,72.17
2023-03-16T09:24:43.904Z,72.63
2023-03-16T09:27:10.589Z,72.39
2023-03-16T09:29:37.109Z,71.93
2023-03-16T09:32:04.109Z,71.44
2023-03-16T09:34:30.608Z,71.04
2023-03-16T09:36:57.891Z,71.22
2023-03-16T09:39:24.568Z,70.94
2023-03-16T09:42:04.320Z,70.20
2023-03-16T09:44:37.233Z,70.63
2023-03-16T09:47:06.087Z,70.57
2023-03-16T09:49:46.158Z,69.33
2023-03-16T09:52:30.178Z,69.73
2023-03-16T09:55:07.013Z,69.30
2023-03-16T09:57:40.551Z,68.67
2023-03-16T10:00:24.770Z,68.42
2023-03-16T10:03:17.652Z,67.62
2023-03-16T10:05:46.810Z,67.41
2023-03-16T10:08:22.808Z,67.29
2023-03-16T10:10:58.498Z,67.29
2023-03-16T10:13:33.573Z,66.87
2023-03-16T10:16:05.278Z,66.39
2023-03-16T10:18:40.435Z,66.81
2023-03-16T10:21:13.264Z,66.57
2023-03-16T10:23:42.077Z,66.12
2023-03-16T10:26:21.488Z,66.25
2023-03-16T10:28:48.037Z,66.73
2023-03-16T10:31:17.521Z,65.04
2023-03-16T10:33:44.692Z,64.67
2023-03-16T10:36:35.446Z,63.80
2023-03-16T10:39:10.312Z,62.80
2023-03-16T10:41:40.171Z,62.81
2023-03-16T10:44:13.477Z,62.75
2023-03-16T10:46:48.494Z,62.60
2023-03-16T10:49:28.334Z,63.18
2023-03-16T10:51:57.900Z,62.31
2023-03-16T10:54:31.898Z,62.43
2023-03-16T10:56:59.352Z,62.40
2023-03-16T10:59:35.057Z,61.84
2023-03-16T11:02:09.453Z,61.82
2023-03-16T11:04:35.971Z,62.09
2023-03-16T11:07:02.489Z,61.61
2023-03-16T11:09:33.964Z,60.85
2023-03-16T11:12:13.745Z,60.00
2023-03-16T11:14:44.542Z,60.35
2023-03-16T11:17:16.177Z,60.96
2023-03-16T11:19:57.684Z,60.79
2023-03-16T11:22:25.742Z,60.21
2023-03-16T11:25:07.378Z,59.71
2023-03-16T11:27:41.418Z,59.44
2023-03-16T11:30:33.851Z,59.13
2023-03-16T11:33:00.690Z,58.23
2023-03-16T11:35:38.459Z,56.95
2023-03-16T11:38:19.348Z,56.75
2023-03-16T11:41:10.640Z,56.86
2023-03-16T11:43:46.822Z,55.68
2023-03-16T11:46:27.377Z,55.21
2023-03-16T11:49:13.886Z,53.85
2023-03-16T11:52:13.043Z,53.96
2023-03-16T11:54:51.757Z,52.47
2023-03-16T11:57:34.982Z,51.10
2023-03-16T12:00:26.133Z,51.49
2023-03-16T12:03:17.539Z,50.81
2023-03-16T12:05:47.706Z,53.15
2023-03-16T12:08:14.638Z,51.38
2023-03-16T12:10:47.193Z,51.63
2023-03-16T12:13:53.335Z,51.51
2023-03-16T12:16:33.218Z,49.64
2023-03-16T12:19:21.938Z,50.00
2023-03-16T12:22:02.265Z,50.26
2023-03-16T12:24:35.660Z,50.29
2023-03-16T12:27:02.553Z,50.59
2023-03-16T12:29:41.889Z,50.50
2023-03-16T12:32:19.168Z,51.60
2023-03-16T12:35:00.124Z,51.76
2023-03-16T12:37:26.524Z,52.54
2023-03-16T12:40:10.636Z,51.14
2023-03-16T12:43:12.424Z,50.08
2023-03-16T12:45:57.007Z,50.59
2023-03-16T12:48:27.358Z,53.25
2023-03-16T12:51:00.379Z,54.19
2023-03-16T12:53:43.356Z,54.09
2023-03-16T12:56:11.950Z,54.20
2023-03-16T12:58:47.568Z,54.33
2023-03-16T13:01:16.923Z,54.46
2023-03-16T13:03:47.138Z,53.71
2023-03-16T13:06:23.595Z,53.61
2023-03-16T13:09:01.080Z,53.08
2023-03-16T13:11:28.552Z,51.16
2023-03-16T13:14:01.070Z,49.63
2023-03-16T13:16:30.622Z,51.81
2023-03-16T13:18:57.463Z,52.49
2023-03-16T13:21:39.596Z,52.32
2023-03-16T13:24:34.967Z,52.79
2023-03-16T13:27:03.712Z,53.47
2023-03-16T13:29:32.791Z,53.83
2023-03-16T13:32:02.878Z,52.58
2023-03-16T13:34:37.571Z,52.83
2023-03-16T13:37:04.217Z,52.66
2023-03-16T13:39:32.557Z,52.31
2023-03-16T13:42:08.300Z,52.02
2023-03-16T13:44:40.171Z,51.64
2023-03-16T13:47:07.564Z,52.05
2023-03-16T13:49:42.996Z,51.97
2023-03-16T13:52:24.465Z,50.92
2023-03-16T13:54:52.670Z,51.05
2023-03-16T13:57:21.995Z,51.61
2023-03-16T13:59:48.484Z,51.36
2023-03-16T14:02:19.653Z,51.30
2023-03-16T14:04:47.061Z,51.80
2023-03-16T14:07:17.575Z,51.81
2023-03-16T14:09:45.275Z,51.03
2023-03-16T14:12:15.205Z,50.90
2023-03-16T14:14:42.537Z,50.96
2023-03-16T14:17:21.534Z,50.70
2023-03-16T14:19:50.570Z,49.67
2023-03-16T14:22:23.952Z,49.94
2023-03-16T14:24:59.020Z,49.50
2023-03-16T14:27:32.979Z,48.95
2023-03-16T14:30:03.326Z,49.70
2023-03-16T14:32:32.399Z,48.97
2023-03-16T14:35:17.459Z,49.76
2023-03-16T14:37:44.867Z,49.29
2023-03-16T14:40:28.625Z,49.50
2023-03-16T14:43:00.529Z,49.79
2023-03-16T14:45:32.081Z,49.01
2023-03-16T14:48:05.189Z,48.24
2023-03-16T14:50:33.541Z,48.48
2023-03-16T14:53:02.505Z,49.06
2023-03-16T14:55:29.370Z,48.88
2023-03-16T14:57:56.060Z,49.42
2023-03-16T15:00:23.048Z,49.10
2023-03-16T15:03:03.153Z,48.49
2023-03-16T15:05:39.440Z,49.23
2023-03-16T15:08:11.633Z,48.99
2023-03-16T15:10:39.170Z,48.47
2023-03-16T15:13:17.186Z,48.07
2023-03-16T15:15:44.043Z,48.13
2023-03-16T15:18:10.813Z,48.57
2023-03-16T15:20:43.235Z,48.47
2023-03-16T15:23:14.810Z,48.00
2023-03-16T15:25:43.494Z,47.37
2023-03-16T15:28:22.221Z,47.97
2023-03-16T15:30:53.443Z,48.22
2023-03-16T15:33:20.179Z,47.99
2023-03-16T15:35:49.209Z,48.00
2023-03-16T15:38:20.370Z,48.45
2023-03-16T15:40:48.162Z,48.77
2023-03-16T15:43:17.034Z,48.81
2023-03-16T15:45:44.570Z,49.05
2023-03-16T15:48:11.842Z,48.45
2023-03-16T15:50:40.959Z,49.07
2023-03-16T15:53:29.300Z,49.55
2023-03-16T15:56:02.876Z,50.33
2023-03-16T15:58:31.566Z,50.48
2023-03-16T16:01:00.061Z,50.37
2023-03-16T16:03:27.639Z,50.74
2023-03-16T16:05:54.569Z,50.88
2023-03-16T16:08:21.527Z,51.52
2023-03-16T16:10:49.269Z,52.06
2023-03-16T16:13:26.730Z,51.45
2023-03-16T16:15:57.576Z,52.07
2023-03-16T16:18:35.033Z,52.48
2023-03-16T16:21:04.312Z,52.85
2023-03-16T16:23:32.444Z,53.46
2023-03-16T16:26:07.215Z,53.76
2023-03-16T16:28:35.003Z,53.63
2023-03-16T16:31:01.924Z,53.95
2023-03-16T16:33:30.998Z,54.09
2023-03-16T16:36:00.604Z,54.54
2023-03-16T16:38:28.092Z,54.38
2023-03-16T16:40:58.143Z,54.71
2023-03-16T16:43:37.436Z,54.86
2023-03-16T16:46:11.191Z,54.74
2023-03-16T16:48:42.129Z,54.68
2023-03-16T16:51:18.369Z,54.97
2023-03-16T16:53:45.875Z,55.30
2023-03-16T16:56:18.488Z,55.38
2023-03-16T16:58:46.381Z,55.72
2023-03-16T17:01:15.935Z,56.19
2023-03-16T17:03:43.002Z,56.65
2023-03-16T17:06:16.879Z,56.92
2023-03-16T17:08:44.547Z,56.98
2023-03-16T17:11:24.904Z,57.40
2023-03-16T17:13:52.797Z,57.70
2023-03-16T17:16:21.934Z,58.14
2023-03-16T17:18:49.506Z,58.50
2023-03-16T17:21:19.689Z,58.23
2023-03-16T17:23:47.853Z,58.59
2023-03-16T17:26:18.017Z,58.90
2023-03-16T17:28:52.907Z,59.49
2023-03-16T17:31:25.769Z,59.55
2023-03-16T17:33:53.965Z,59.70
2023-03-16T17:36:21.380Z,60.05
2023-03-16T17:38:48.321Z,59.87
2023-03-16T17:41:27.145Z,60.42
2023-03-16T17:43:57.062Z,60.50
2023-03-16T17:46:27.217Z,60.73
2023-03-16T17:48:55.985Z,61.23
2023-03-16T17:51:25.921Z,61.34
2023-03-16T17:53:53.965Z,61.79
2023-03-16T17:56:24.554Z,62.14
2023-03-16T17:58:52.369Z,62.61
2023-03-16T18:01:26.388Z,62.74
2023-03-16T18:03:52.921Z,62.81
2023-03-16T18:06:23.245Z,63.44
2023-03-16T18:08:49.658Z,63.34
2023-03-16T18:11:20.819Z,63.42
2023-03-16T18:13:49.648Z,63.35
2023-03-16T18:16:23.320Z,63.84
2023-03-16T18:18:58.371Z,64.02
2023-03-16T18:21:25.639Z,63.38
2023-03-16T18:23:52.979Z,64.13
2023-03-16T18:26:20.528Z,64.24
2023-03-16T18:28:47.066Z,64.21
2023-03-16T18:31:26.296Z,64.51
2023-03-16T18:33:59.532Z,64.09
2023-03-16T18:36:32.191Z,64.32
2023-03-16T18:39:00.956Z,64.12
2023-03-16T18:41:33.467Z,64.20
2023-03-16T18:44:05.631Z,64.18
2023-03-16T18:46:35.343Z,64.22
2023-03-16T18:49:12.080Z,63.80
2023-03-16T18:51:38.645Z,64.19
2023-03-16T18:54:27.630Z,63.93
2023-03-16T18:56:54.803Z,63.98
2023-03-16T18:59:21.337Z,64.11
2023-03-16T19:01:48.265Z,63.96
2023-03-16T19:04:27.207Z,64.21
2023-03-16T19:06:54.877Z,64.09
2023-03-16T19:09:30.101Z,64.36
2023-03-16T19:11:57.521Z,64.10
2023-03-16T19:14:30.743Z,64.23
2023-03-16T19:16:58.354Z,64.11
2023-03-16T19:19:25.138Z,64.17
2023-03-16T19:21:58.160Z,64.06
2023-03-16T19:24:28.875Z,64.16
2023-03-16T19:26:55.475Z,64.04
2023-03-16T19:29:29.720Z,63.79
2023-03-16T19:31:57.355Z,63.82
2023-03-16T19:34:24.029Z,63.64
2023-03-16T19:36:51.005Z,63.63
2023-03-16T19:39:17.456Z,63.70
2023-03-16T19:41:55.229Z,63.66
2023-03-16T19:44:25.243Z,63.76
2023-03-16T19:46:52.078Z,63.95
2023-03-16T19:49:27.899Z,63.84
2023-03-16T19:51:55.942Z,63.83
2023-03-16T19:54:28.609Z,63.89
2023-03-16T19:56:57.983Z,63.97
2023-03-16T19:59:28.676Z,64.33
2023-03-16T20:01:55.021Z,64.06
2023-03-16T20:04:24.405Z,64.16
2023-03-16T20:06:51.638Z,64.83
2023-03-16T20:09:18.352Z,64.57
2023-03-16T20:11:45.462Z,65.04
2023-03-16T20:14:21.072Z,64.64
2023-03-16T20:16:48.228Z,64.63
2023-03-16T20:19:15.878Z,64.73
2023-03-16T20:21:43.060Z,64.64
2023-03-16T20:24:19.148Z,64.99
2023-03-16T20:26:47.862Z,64.62
2023-03-16T20:29:34.562Z,64.96
2023-03-16T20:32:02.986Z,64.98
2023-03-16T20:34:31.400Z,65.10
2023-03-16T20:36:58.508Z,65.12
2023-03-16T20:39:25.574Z,65.05
2023-03-16T20:41:52.520Z,65.24
2023-03-16T20:44:20.725Z,65.25
2023-03-16T20:46:47.868Z,65.10
2023-03-16T20:49:25.168Z,65.37
2023-03-16T20:51:51.868Z,65.46
2023-03-16T20:54:18.641Z,65.13
2023-03-16T20:56:45.239Z,65.42
2023-03-16T20:59:20.132Z,65.35
2023-03-16T21:01:47.141Z,65.07
2023-03-16T21:04:20.838Z,65.47
2023-03-16T21:06:50.754Z,65.28
2023-03-16T21:09:19.162Z,65.28
2023-03-16T21:11:46.645Z,64.98
2023-03-16T21:14:23.877Z,65.28
2023-03-16T21:16:51.419Z,65.39
2023-03-16T21:19:22.816Z,65.37
2023-03-16T21:21:50.220Z,65.45
2023-03-16T21:24:16.858Z,65.48
2023-03-16T21:26:44.512Z,65.02
2023-03-16T21:29:16.327Z,65.24
2023-03-16T21:31:43.164Z,64.92
2023-03-16T21:34:27.848Z,64.80
2023-03-16T21:36:54.403Z,65.02
2023-03-16T21:39:23.688Z,64.82
2023-03-16T21:41:50.753Z,64.68
2023-03-16T21:44:17.421Z,64.52
2023-03-16T21:46:43.950Z,64.42
2023-03-16T21:49:12.058Z,64.43
2023-03-16T21:51:42.812Z,64.67
2023-03-16T21:54:12.648Z,64.68
2023-03-16T21:56:39.113Z,64.35
2023-03-16T21:59:05.815Z,64.30
2023-03-16T22:01:33.873Z,64.65
2023-03-16T22:04:06.890Z,64.52
2023-03-16T22:06:33.455Z,64.44
2023-03-16T22:09:00.665Z,64.49
2023-03-16T22:11:29.617Z,64.36
2023-03-16T22:13:58.000Z,64.64
2023-03-16T22:16:37.205Z,64.92
2023-03-16T22:19:04.242Z,64.58
2023-03-16T22:21:37.609Z,64.60
2023-03-16T22:24:07.633Z,64.79
2023-03-16T22:26:34.116Z,64.66
2023-03-16T22:29:01.904Z,64.52
2023-03-16T22:31:34.668Z,64.58
2023-03-16T22:34:03.036Z,64.18
2023-03-16T22:36:31.442Z,64.15
2023-03-16T22:39:08.805Z,64.20
2023-03-16T22:41:35.475Z,64.15
2023-03-16T22:44:02.112Z,63.65
2023-03-16T22:46:29.608Z,63.74
2023-03-16T22:48:57.203Z,63.59
2023-03-16T22:51:34.406Z,63.66
2023-03-16T22:54:04.668Z,63.77
2023-03-16T22:56:33.101Z,63.71
2023-03-16T22:59:04.179Z,63.43
2023-03-16T23:01:37.515Z,63.51
2023-03-16T23:04:14.463Z,63.65
2023-03-16T23:06:41.006Z,63.76
2023-03-16T23:09:07.968Z,63.87
2023-03-16T23:11:37.733Z,64.04
2023-03-16T23:14:16.873Z,63.84
2023-03-16T23:16:44.423Z,63.94
2023-03-16T23:19:34.256Z,64.42
2023-03-16T23:22:04.845Z,64.20
2023-03-16T23:24:35.387Z,64.22
2023-03-16T23:27:02.675Z,64.30
2023-03-16T23:29:29.976Z,63.68
2023-03-16T23:31:56.765Z,64.16
2023-03-16T23:34:24.850Z,63.97
2023-03-16T23:36:51.930Z,63.83
2023-03-16T23:39:18.641Z,63.69
2023-03-16T23:41:47.679Z,63.82
2023-03-16T23:44:25.495Z,63.71
2023-03-16T23:46:52.957Z,63.65
2023-03-16T23:49:24.143Z,63.58
2023-03-16T23:51:52.016Z,63.43
2023-03-16T23:54:27.730Z,63.26
2023-03-16T23:56:54.325Z,63.12
2023-03-16T23:59:23.182Z,63.03
